Pencer, Minnesota
Current Conditions -  °F | °C
As of 10:14 AM on Saturday 25 Oct 2014 (Local Time) from KROX Reporting Station
Clear Clear  
Wind Chill: 40°   Ceiling: Unl
Heat Index: 46°   Visibility: 10mi
Dew Point: 34°   Wind: 14mph
Humidity: 62%   Direction: 290°WNW
Pressure: 29.98"   Gusts: 18mph
Location:  48.7499°N, 95.6399°W
Report Text: KROX 251514Z AUTO 29012G16KT 10SM CLR 08/01 A2998 RMK AO2
Loading
Personal Weather Stations






























Interactive Weather Map
Tropical Storm Tracking
New forecast layout! Learn more

10-Day Weather Forecast

Advertisements
Track Severe Weather on mobile